Startpagina
METAR-TAF:

METAR-TAF

Vliegvelden :

Grenchen, Zwitserland

breedte: 47-10-53N, lengte: 007-24-59E, hoogte: 430 m

Actueel weer

Dit bericht is 26 minuten geleden gemaakt, om 01:50 UTC
Wind 2 kt uit het zuidwesten
Temperatuur -2°C
Vochtigheid 100%
Druk 1027 hPa
Zicht: 3600 m
Geheel bewolkt op 400 ft
nevel

METAR: LSZG 240150Z AUTO 23002KT 3600 BR OVC004 M02/M02 Q1027

Tijdstip: 03:16 (02:16 UTC)

Verwachting

Dit bericht is 11 uur en het 51 minuten geleden gemaakt, om 14:25 UTC
Verwachting geldig van 23 om 15 UTC tot 23 om 24 UTC
Wind 3 kt uit variabele richting
Zicht: 5000 m
Geheel bewolkt op 700 ft
Wijzigt naar
van 23 om 18 UTC tot 23 om 21 UTC
Zicht: 3000 m
Geheel bewolkt op 400 ft
nevel

TAF: LSZG 231425Z 2315/2324 VRB03KT 5000 OVC007 BECMG 2318/2321 3000 BR OVC004

Waarnemingen en weersverwachtingen van meer dan 4000 vliegvelden (METAR en TAF).

De beschikbare stations zijn de gele en rode punten op de kaart.

Ga met uw muis naar het station om de naam te zien.

Klik dan om waarnemingen en weersverwachtingen te zien.

kaart wijzigen: klik op de groene knoppen met een zwart kruis om in te zoomen, op de groene knop met een streepje om uit te zoomen of op de groene pijlen voor aangrenzende kaarten.


METAR-TAF: